Time;durP1;ratioP1;P1;durP2;ratioP2;P2;SDS_P1;SDS_P2;PMS_P1;PMS_P2;Temp;Humidity;BMP_temperature;BMP_pressure;BME280_temperature;BME280_humidity;BME280_pressure;Samples;Min_cycle;Max_cycle;Signal;HPM_P1;HPM_P2
2022/12/31 00:01:52;;;;;;;1.73;0.70;;;13.90;99.90;;;;;;5058943;28;20627;-89
2022/12/31 00:04:19;;;;;;;0.67;0.67;;;14.00;99.90;;;;;;5076642;28;20204;-88
2022/12/31 00:06:47;;;;;;;0.80;0.80;;;14.00;99.90;;;;;;5076638;28;20301;-89
2022/12/31 00:09:15;;;;;;;1.03;0.80;;;13.90;99.90;;;;;;5060641;28;20216;-89
2022/12/31 00:11:42;;;;;;;0.90;0.90;;;13.90;99.90;;;;;;5044698;28;20862;-92
2022/12/31 00:14:09;;;;;;;0.87;0.73;;;13.90;99.90;;;;;;5050887;28;20207;-90
2022/12/31 00:16:39;;;;;;;0.70;0.70;;;13.90;99.90;;;;;;5039187;28;20295;-91
2022/12/31 00:19:08;;;;;;;0.90;0.70;;;13.90;99.90;;;;;;5041497;28;20266;-92
2022/12/31 00:21:35;;;;;;;0.70;0.70;;;13.90;99.90;;;;;;5041459;28;20256;-90
2022/12/31 00:24:03;;;;;;;0.83;0.70;;;13.90;99.90;;;;;;5047765;28;20210;-94
2022/12/31 00:26:33;;;;;;;0.77;0.77;;;13.90;99.90;;;;;;5059839;28;20198;-91
2022/12/31 00:29:01;;;;;;;0.98;0.98;;;13.90;99.90;;;;;;5064144;28;20431;-91
2022/12/31 00:31:30;;;;;;;0.87;0.87;;;13.90;99.90;;;;;;5065158;28;20250;-88
2022/12/31 00:33:58;;;;;;;0.80;0.80;;;13.90;99.90;;;;;;5075619;28;20297;-90
2022/12/31 00:36:27;;;;;;;1.00;1.00;;;13.80;99.90;;;;;;5065898;28;20202;-88
2022/12/31 00:38:56;;;;;;;1.90;0.73;;;13.90;99.90;;;;;;5065066;28;20294;-90
2022/12/31 00:41:23;;;;;;;2.63;0.57;;;13.80;99.90;;;;;;5056417;28;20225;-92
2022/12/31 00:43:52;;;;;;;0.70;0.30;;;13.60;99.90;;;;;;5061476;28;20249;-92
2022/12/31 00:46:20;;;;;;;0.30;0.30;;;13.40;99.90;;;;;;5057419;28;20216;-91
2022/12/31 00:48:50;;;;;;;0.20;0.20;;;13.30;99.90;;;;;;5066139;28;20256;-92
2022/12/31 00:51:19;;;;;;;0.28;0.28;;;13.20;99.90;;;;;;5061425;28;20451;-91
2022/12/31 00:53:46;;;;;;;0.23;0.23;;;13.20;99.90;;;;;;5075197;28;20240;-87
2022/12/31 00:56:16;;;;;;;0.20;0.20;;;13.20;99.90;;;;;;5047986;28;20293;-89
2022/12/31 00:58:44;;;;;;;0.20;0.20;;;13.10;99.90;;;;;;5075210;28;20205;-90
2022/12/31 01:01:17;;;;;;;0.30;0.30;;;13.10;99.90;;;;;;5075037;28;20218;-91
2022/12/31 01:03:45;;;;;;;0.87;0.30;;;13.10;99.90;;;;;;5047600;28;20235;-89
2022/12/31 01:06:12;;;;;;;0.27;0.27;;;13.00;99.90;;;;;;5050104;28;20205;-91
2022/12/31 01:08:39;;;;;;;0.30;0.30;;;13.00;99.90;;;;;;5074238;28;20276;-90
2022/12/31 01:11:21;;;;;;;0.20;0.20;;;13.00;99.90;;;;;;5074858;28;20217;-89
2022/12/31 01:13:49;;;;;;;0.20;0.20;;;13.00;99.90;;;;;;5074701;28;20212;-91
2022/12/31 01:16:19;;;;;;;0.10;0.10;;;13.10;99.90;;;;;;5074633;28;20674;-91
2022/12/31 01:18:48;;;;;;;0.33;0.33;;;13.10;99.90;;;;;;5071122;28;20201;-91
2022/12/31 01:21:15;;;;;;;0.20;0.20;;;13.10;99.90;;;;;;5065080;28;20308;-90
2022/12/31 01:23:42;;;;;;;0.30;0.30;;;13.20;99.90;;;;;;5053100;28;20227;-90
2022/12/31 01:26:11;;;;;;;0.20;0.20;;;13.10;99.90;;;;;;5056846;28;20547;-89
2022/12/31 01:28:38;;;;;;;0.30;0.30;;;13.10;99.90;;;;;;5069914;28;20293;-93
2022/12/31 01:31:08;;;;;;;0.20;0.20;;;13.20;99.90;;;;;;5042696;28;20231;-92
2022/12/31 01:33:37;;;;;;;0.20;0.20;;;13.10;99.90;;;;;;5072371;28;20212;-89
2022/12/31 01:36:07;;;;;;;0.20;0.20;;;13.20;99.90;;;;;;5074274;28;20197;-91
2022/12/31 01:38:35;;;;;;;0.20;0.20;;;13.20;99.90;;;;;;5049717;28;20198;-88
2022/12/31 01:41:02;;;;;;;0.23;0.23;;;13.20;99.90;;;;;;5067378;28;20222;-93
2022/12/31 01:43:45;;;;;;;0.20;0.20;;;13.20;99.90;;;;;;5048262;28;20225;-90
2022/12/31 01:46:17;;;;;;;0.20;0.20;;;13.20;99.90;;;;;;5047830;28;20230;-90
2022/12/31 01:48:48;;;;;;;0.20;0.20;;;13.30;99.90;;;;;;5064739;28;20210;-89
2022/12/31 01:51:16;;;;;;;0.20;0.20;;;13.30;99.90;;;;;;5070949;28;20229;-89
2022/12/31 01:53:43;;;;;;;0.20;0.20;;;13.20;99.90;;;;;;5063156;28;20213;-90
2022/12/31 01:56:10;;;;;;;0.20;0.20;;;13.20;99.90;;;;;;5071581;28;20201;-88
2022/12/31 01:58:42;;;;;;;0.20;0.20;;;13.10;99.90;;;;;;5063093;28;20198;-90
2022/12/31 02:01:12;;;;;;;0.20;0.20;;;13.20;99.90;;;;;;5047630;28;20229;-94
2022/12/31 02:03:39;;;;;;;0.20;0.20;;;13.10;99.90;;;;;;5076141;28;20228;-92
2022/12/31 02:06:13;;;;;;;0.30;0.30;;;13.10;99.90;;;;;;5062404;28;20194;-91
2022/12/31 02:08:41;;;;;;;0.30;0.30;;;13.10;99.90;;;;;;5062933;28;20197;-92
2022/12/31 02:11:21;;;;;;;0.40;0.40;;;13.20;99.90;;;;;;5075705;28;20309;-93
2022/12/31 02:13:49;;;;;;;0.40;0.40;;;13.20;99.90;;;;;;5061286;28;20207;-91
2022/12/31 02:16:21;;;;;;;0.40;0.40;;;13.20;99.90;;;;;;5064027;28;20288;-91
2022/12/31 02:18:55;;;;;;;0.40;0.40;;;13.20;99.90;;;;;;5041243;28;20205;-91
2022/12/31 02:21:59;;;;;;;0.70;0.70;;;13.20;99.90;;;;;;5047172;28;20221;-90
2022/12/31 02:25:08;;;;;;;0.60;0.60;;;13.30;99.90;;;;;;4964186;28;20251;-91
2022/12/31 02:27:48;;;;;;;0.73;0.67;;;13.40;99.90;;;;;;5034002;28;20210;-89
2022/12/31 02:30:18;;;;;;;1.17;0.70;;;13.60;99.90;;;;;;5081024;28;20217;-92
2022/12/31 02:33:09;;;;;;;1.50;0.50;;;13.80;99.90;;;;;;5086380;28;20271;-94
2022/12/31 02:35:46;;;;;;;4.27;0.80;;;14.00;99.90;;;;;;5073857;28;20206;-95
2022/12/31 02:38:17;;;;;;;2.47;0.60;;;14.10;99.90;;;;;;5068598;28;20205;-93
2022/12/31 02:40:45;;;;;;;1.90;0.80;;;14.20;99.90;;;;;;5064489;28;20231;-88
2022/12/31 02:43:12;;;;;;;2.73;0.70;;;14.20;99.90;;;;;;5040928;28;20233;-90
2022/12/31 02:45:45;;;;;;;2.10;0.77;;;14.30;99.90;;;;;;5065672;28;20232;-90
2022/12/31 02:48:24;;;;;;;2.67;0.90;;;14.30;99.90;;;;;;5054622;28;20209;-91
2022/12/31 02:51:00;;;;;;;3.33;0.90;;;14.40;99.90;;;;;;5059640;28;20262;-90
2022/12/31 02:53:45;;;;;;;1.73;1.00;;;14.40;99.90;;;;;;5073360;28;20208;-93
2022/12/31 02:56:19;;;;;;;2.70;0.97;;;14.50;99.90;;;;;;5060069;28;20259;-88
2022/12/31 03:04:35;;;;;;;4.20;1.10;;;14.40;99.90;;;;;;5072456;28;20246;-91
2022/12/31 03:07:05;;;;;;;1.83;0.70;;;14.50;99.90;;;;;;5073153;28;20214;-90
2022/12/31 03:09:33;;;;;;;2.57;0.73;;;14.50;99.90;;;;;;5063750;28;20221;-88
2022/12/31 03:14:45;;;;;;;3.13;1.10;;;14.50;99.90;;;;;;5054021;28;20229;-91
2022/12/31 03:17:14;;;;;;;3.60;1.17;;;14.60;99.90;;;;;;5056530;28;20214;-91
2022/12/31 03:22:28;;;;;;;4.93;1.10;;;14.70;99.90;;;;;;5073668;28;20217;-89
2022/12/31 03:27:43;;;;;;;2.23;0.80;;;14.80;99.90;;;;;;5070124;28;20204;-89
2022/12/31 03:30:12;;;;;;;1.67;0.83;;;15.00;99.90;;;;;;5050494;28;20225;-91
2022/12/31 03:32:42;;;;;;;3.97;0.80;;;15.00;99.90;;;;;;5062377;28;20545;-90
2022/12/31 03:35:10;;;;;;;3.93;1.00;;;15.10;99.90;;;;;;5045598;28;20226;-89
2022/12/31 03:37:38;;;;;;;3.40;0.80;;;15.20;99.90;;;;;;5036378;28;20210;-89
2022/12/31 03:40:06;;;;;;;5.40;0.80;;;15.20;99.90;;;;;;5046574;28;20218;-91
2022/12/31 03:42:33;;;;;;;1.00;0.60;;;15.20;99.90;;;;;;5076366;28;20209;-88
2022/12/31 03:45:04;;;;;;;2.63;1.10;;;15.20;99.90;;;;;;5058153;28;20236;-92
2022/12/31 03:47:31;;;;;;;2.30;0.80;;;15.20;99.90;;;;;;5064985;28;20220;-90
2022/12/31 03:50:00;;;;;;;2.20;0.80;;;15.30;99.90;;;;;;5075821;28;20223;-95
2022/12/31 03:52:27;;;;;;;1.60;0.70;;;15.30;99.90;;;;;;5063816;28;20290;-92
2022/12/31 03:54:54;;;;;;;2.80;0.80;;;15.40;99.90;;;;;;5046270;28;20208;-92
2022/12/31 03:57:21;;;;;;;2.17;0.50;;;15.30;99.90;;;;;;5050924;28;20205;-92
2022/12/31 03:59:49;;;;;;;1.60;0.80;;;15.40;99.90;;;;;;5054483;28;20636;-93
2022/12/31 04:02:16;;;;;;;2.23;0.73;;;15.40;99.90;;;;;;5071470;28;20200;-91
2022/12/31 04:04:43;;;;;;;1.60;0.67;;;15.30;99.90;;;;;;5045127;28;20232;-90
2022/12/31 04:07:11;;;;;;;2.43;0.73;;;15.40;99.90;;;;;;5067943;28;20210;-91
2022/12/31 04:09:38;;;;;;;2.23;0.73;;;15.50;99.90;;;;;;5076454;28;20234;-90
2022/12/31 04:12:05;;;;;;;1.90;0.73;;;15.50;99.90;;;;;;5076413;28;20199;-91
2022/12/31 04:14:32;;;;;;;0.40;0.30;;;15.50;99.90;;;;;;5076164;28;20206;-90
2022/12/31 04:16:59;;;;;;;1.80;0.60;;;15.60;99.90;;;;;;5072096;28;20206;-90
2022/12/31 04:19:26;;;;;;;0.60;0.60;;;15.60;99.90;;;;;;5075260;28;20193;-91
2022/12/31 04:21:54;;;;;;;0.47;0.47;;;15.60;99.90;;;;;;5074670;28;20291;-88
2022/12/31 04:24:22;;;;;;;1.63;0.63;;;15.60;99.90;;;;;;5055759;28;20234;-89
2022/12/31 04:26:50;;;;;;;1.97;0.40;;;15.60;99.90;;;;;;5069502;28;20209;-91
2022/12/31 04:29:17;;;;;;;1.97;0.53;;;15.60;99.90;;;;;;5064370;28;20202;-89
2022/12/31 04:31:44;;;;;;;1.33;0.60;;;15.60;99.90;;;;;;5073488;28;20208;-89
2022/12/31 04:34:11;;;;;;;2.10;0.50;;;15.60;99.90;;;;;;5038347;28;20209;-91
2022/12/31 04:36:38;;;;;;;0.73;0.60;;;15.50;99.90;;;;;;5039996;28;20202;-91
2022/12/31 04:39:05;;;;;;;2.10;0.70;;;15.50;99.90;;;;;;5066947;28;20644;-92
2022/12/31 04:41:34;;;;;;;2.37;0.80;;;15.50;99.90;;;;;;5065218;28;20218;-91
2022/12/31 04:44:02;;;;;;;2.20;0.60;;;15.40;99.90;;;;;;5069210;28;20236;-91
2022/12/31 04:46:31;;;;;;;2.10;0.70;;;15.40;99.90;;;;;;5058413;28;20206;-90
2022/12/31 04:48:58;;;;;;;1.33;0.83;;;15.50;99.90;;;;;;5075588;28;20204;-90
2022/12/31 04:51:27;;;;;;;1.90;0.60;;;15.40;99.90;;;;;;5075414;28;20227;-91
2022/12/31 04:53:56;;;;;;;1.30;0.70;;;15.50;99.90;;;;;;5072237;28;20212;-94
2022/12/31 04:56:23;;;;;;;2.20;0.83;;;15.40;99.90;;;;;;5062393;28;20222;-91
2022/12/31 04:58:52;;;;;;;0.90;0.50;;;15.50;99.90;;;;;;5068529;28;20289;-90
2022/12/31 05:01:19;;;;;;;2.83;0.90;;;15.60;99.90;;;;;;5069929;28;20311;-91
2022/12/31 05:03:46;;;;;;;3.30;0.67;;;15.60;99.90;;;;;;5075162;28;20218;-92
2022/12/31 05:06:16;;;;;;;0.90;0.70;;;15.80;99.90;;;;;;5074855;28;20197;-90
2022/12/31 05:08:43;;;;;;;2.27;0.63;;;15.80;99.90;;;;;;5066383;28;20210;-92
2022/12/31 05:11:10;;;;;;;0.77;0.50;;;15.90;99.90;;;;;;5057135;28;20740;-92
2022/12/31 05:13:38;;;;;;;2.07;0.87;;;16.00;99.90;;;;;;5061729;28;20217;-91
2022/12/31 05:16:07;;;;;;;1.47;0.50;;;16.00;99.90;;;;;;5057525;28;20218;-93
2022/12/31 05:18:35;;;;;;;1.40;0.57;;;16.10;99.90;;;;;;5066898;28;20206;-90
2022/12/31 05:21:02;;;;;;;1.93;0.80;;;16.10;99.90;;;;;;5066048;28;20407;-88
2022/12/31 05:23:30;;;;;;;1.43;0.53;;;16.10;99.90;;;;;;5057912;28;20230;-91
2022/12/31 05:25:58;;;;;;;2.77;0.70;;;16.20;99.90;;;;;;5055342;28;20280;-90
2022/12/31 05:28:25;;;;;;;0.73;0.50;;;16.10;99.90;;;;;;5065066;28;20202;-92
2022/12/31 05:30:53;;;;;;;1.53;0.50;;;16.20;99.90;;;;;;5064788;28;20222;-91
2022/12/31 05:33:21;;;;;;;0.87;0.50;;;16.20;99.90;;;;;;5074790;28;20717;-92
2022/12/31 05:35:48;;;;;;;0.63;0.60;;;16.30;99.90;;;;;;5075009;28;20202;-92
2022/12/31 05:38:16;;;;;;;2.17;0.80;;;16.30;99.90;;;;;;5074394;28;20285;-91
2022/12/31 05:40:43;;;;;;;2.53;0.60;;;16.30;99.90;;;;;;5074594;28;20256;-96
2022/12/31 05:43:10;;;;;;;1.77;1.10;;;16.20;99.90;;;;;;5074176;28;20232;-90
2022/12/31 05:45:36;;;;;;;1.27;0.53;;;16.20;99.90;;;;;;5063650;28;20229;-93
2022/12/31 05:48:04;;;;;;;2.87;0.70;;;16.30;99.90;;;;;;5067639;28;20210;-91
2022/12/31 05:50:33;;;;;;;3.87;0.60;;;16.30;99.90;;;;;;5065611;28;20220;-90
2022/12/31 05:53:00;;;;;;;0.90;0.60;;;16.40;99.90;;;;;;5074231;28;20228;-90
2022/12/31 05:55:29;;;;;;;1.23;0.60;;;16.30;99.90;;;;;;5062855;28;20229;-90
2022/12/31 05:57:56;;;;;;;1.30;0.40;;;16.20;99.90;;;;;;5072887;28;20227;-92
2022/12/31 06:00:23;;;;;;;1.60;0.70;;;16.20;99.90;;;;;;5061466;28;20670;-90
2022/12/31 06:02:50;;;;;;;2.10;0.70;;;16.20;99.90;;;;;;5067459;28;20202;-87
2022/12/31 06:05:17;;;;;;;1.27;0.60;;;16.20;99.90;;;;;;5066456;28;20229;-90
2022/12/31 06:07:46;;;;;;;0.73;0.60;;;16.20;99.90;;;;;;5073953;28;20268;-92
2022/12/31 06:10:13;;;;;;;3.90;0.73;;;16.30;99.90;;;;;;5047854;28;20722;-90
2022/12/31 06:12:40;;;;;;;4.60;1.10;;;16.30;99.90;;;;;;5066893;28;20226;-92
2022/12/31 06:15:09;;;;;;;3.80;0.90;;;16.10;99.90;;;;;;5067267;28;20301;-92
2022/12/31 06:17:35;;;;;;;1.90;0.70;;;16.10;99.90;;;;;;5048540;28;20209;-90
2022/12/31 06:20:04;;;;;;;2.87;1.13;;;16.10;99.90;;;;;;5046693;28;20229;-92
2022/12/31 06:22:31;;;;;;;2.50;1.10;;;16.10;99.90;;;;;;5048522;28;20222;-91
2022/12/31 06:24:59;;;;;;;1.40;1.00;;;16.30;99.90;;;;;;5072725;28;20617;-92
2022/12/31 06:27:26;;;;;;;2.67;0.73;;;16.20;99.90;;;;;;5061634;28;20723;-92
2022/12/31 06:29:53;;;;;;;2.53;0.90;;;16.30;99.90;;;;;;5060165;28;20226;-93
2022/12/31 06:32:21;;;;;;;4.87;1.27;;;16.30;99.90;;;;;;5068152;28;20729;-92
2022/12/31 06:34:48;;;;;;;2.67;1.13;;;16.30;99.90;;;;;;5069933;28;20203;-94
2022/12/31 06:37:15;;;;;;;3.23;1.03;;;16.40;99.90;;;;;;5073838;28;20652;-93
2022/12/31 06:39:42;;;;;;;5.33;0.80;;;16.40;99.90;;;;;;5073714;28;20315;-95
2022/12/31 06:42:10;;;;;;;1.40;0.90;;;16.40;99.90;;;;;;5058005;28;20208;-95
2022/12/31 06:44:37;;;;;;;1.90;0.90;;;16.50;99.90;;;;;;5057664;28;20317;-95
2022/12/31 06:47:04;;;;;;;7.30;1.17;;;16.50;99.90;;;;;;5075746;28;20219;-91
2022/12/31 06:49:31;;;;;;;3.33;0.90;;;16.50;99.90;;;;;;5080894;28;20199;-93
2022/12/31 06:51:58;;;;;;;3.23;1.10;;;16.30;99.90;;;;;;5086426;28;20206;-94
2022/12/31 06:54:25;;;;;;;2.63;1.00;;;16.20;99.90;;;;;;5071872;28;20233;-94
2022/12/31 06:56:52;;;;;;;4.83;1.27;;;16.40;99.90;;;;;;5079680;28;20189;-95
2022/12/31 06:59:26;;;;;;;3.40;1.13;;;16.20;99.90;;;;;;5078624;28;20201;-93
2022/12/31 07:02:07;;;;;;;3.60;1.10;;;16.20;99.90;;;;;;5074349;28;20197;-91
2022/12/31 07:05:07;;;;;;;3.67;0.90;;;16.10;99.90;;;;;;5064143;28;20226;-90
2022/12/31 07:07:43;;;;;;;3.20;0.90;;;16.00;99.90;;;;;;5077475;28;20206;-91
2022/12/31 07:10:22;;;;;;;3.53;1.20;;;15.90;99.90;;;;;;5051829;28;20299;-91
2022/12/31 07:13:00;;;;;;;2.65;0.98;;;15.90;99.90;;;;;;5077062;28;20519;-92
2022/12/31 07:15:42;;;;;;;3.67;1.10;;;15.90;99.90;;;;;;5077943;28;20564;-91
2022/12/31 07:18:18;;;;;;;1.93;0.73;;;15.80;99.90;;;;;;5064165;28;20214;-93
2022/12/31 07:20:46;;;;;;;3.43;0.90;;;15.80;99.90;;;;;;5024102;28;20232;-91
2022/12/31 07:23:13;;;;;;;2.67;0.90;;;15.80;99.90;;;;;;5064854;28;20225;-93
2022/12/31 07:25:43;;;;;;;2.97;1.00;;;15.80;99.90;;;;;;5064695;28;20234;-92
2022/12/31 07:28:20;;;;;;;1.30;0.83;;;15.90;99.90;;;;;;5076998;28;20208;-92
2022/12/31 07:30:56;;;;;;;2.73;1.17;;;15.80;99.90;;;;;;5077211;28;20226;-91
2022/12/31 07:33:35;;;;;;;2.73;1.13;;;15.70;99.90;;;;;;5050242;28;20203;-91
2022/12/31 07:36:13;;;;;;;9.30;1.57;;;15.70;99.90;;;;;;5064079;28;20212;-91
2022/12/31 07:38:50;;;;;;;1.73;0.80;;;15.70;99.90;;;;;;5053096;28;20205;-94
2022/12/31 07:41:29;;;;;;;4.80;1.00;;;15.60;99.90;;;;;;5070631;28;20233;-93
2022/12/31 07:44:04;;;;;;;3.50;1.10;;;15.60;99.90;;;;;;5079523;28;20636;-93
2022/12/31 07:46:40;;;;;;;2.27;1.00;;;15.50;99.90;;;;;;5076734;28;20228;-92
2022/12/31 07:49:11;;;;;;;5.93;1.70;;;15.50;99.90;;;;;;5076101;28;20228;-93
2022/12/31 07:51:38;;;;;;;4.20;1.20;;;15.60;99.90;;;;;;5053095;28;20573;-90
2022/12/31 07:54:06;;;;;;;4.47;0.90;;;15.60;99.90;;;;;;5045966;28;20207;-89
2022/12/31 07:56:33;;;;;;;2.60;1.20;;;15.60;99.90;;;;;;5076399;28;20224;-90
2022/12/31 07:59:07;;;;;;;1.20;0.80;;;15.70;99.90;;;;;;5062211;28;20209;-90
2022/12/31 08:01:46;;;;;;;5.27;0.90;;;15.60;99.90;;;;;;5056312;28;20253;-87
2022/12/31 08:04:21;;;;;;;2.50;0.80;;;15.70;99.90;;;;;;5073589;28;20238;-90
2022/12/31 08:06:56;;;;;;;1.80;0.83;;;15.60;99.90;;;;;;5076292;28;20663;-93
2022/12/31 08:09:38;;;;;;;2.27;1.00;;;15.80;99.90;;;;;;5062429;28;20296;-89
2022/12/31 08:12:07;;;;;;;1.60;0.90;;;15.80;99.90;;;;;;5074637;28;20208;-90
2022/12/31 08:14:41;;;;;;;1.77;1.00;;;15.90;99.90;;;;;;5065606;28;20218;-93
2022/12/31 08:17:13;;;;;;;3.13;0.80;;;15.90;99.90;;;;;;5063366;28;20204;-91
2022/12/31 08:19:41;;;;;;;1.93;0.87;;;15.90;99.90;;;;;;5064821;28;20234;-89
2022/12/31 08:22:26;;;;;;;5.10;1.73;;;16.00;99.90;;;;;;5073992;28;20489;-91
2022/12/31 08:25:07;;;;;;;2.90;1.30;;;16.00;99.90;;;;;;5056423;28;20223;-92
2022/12/31 08:27:41;;;;;;;4.83;1.10;;;16.10;99.90;;;;;;5046215;28;20205;-92
2022/12/31 08:30:10;;;;;;;3.13;0.90;;;16.00;99.90;;;;;;5054390;28;20228;-93
2022/12/31 08:32:43;;;;;;;2.07;1.07;;;16.00;99.90;;;;;;5056891;28;20200;-93
2022/12/31 08:35:27;;;;;;;1.00;0.83;;;16.00;99.90;;;;;;5055543;28;20209;-94
2022/12/31 08:38:02;;;;;;;2.77;1.00;;;16.10;99.90;;;;;;5067691;28;20244;-87
2022/12/31 08:40:47;;;;;;;4.43;1.37;;;16.20;99.90;;;;;;5050959;28;20215;-88
2022/12/31 08:43:31;;;;;;;5.07;1.07;;;16.20;99.90;;;;;;5041168;28;20209;-92
2022/12/31 08:46:00;;;;;;;3.07;1.20;;;16.10;99.90;;;;;;5039251;28;20311;-91
2022/12/31 08:48:36;;;;;;;4.87;0.90;;;16.20;99.90;;;;;;5038429;28;20290;-93
2022/12/31 08:51:05;;;;;;;6.97;1.50;;;16.30;99.90;;;;;;5036558;28;20654;-88
2022/12/31 08:53:33;;;;;;;3.73;1.67;;;16.30;99.90;;;;;;5039832;28;20210;-89
2022/12/31 08:56:07;;;;;;;3.07;1.10;;;16.40;99.90;;;;;;5075586;28;20259;-89
2022/12/31 08:58:43;;;;;;;3.33;1.20;;;16.40;99.90;;;;;;5074783;28;20237;-92
2022/12/31 09:01:13;;;;;;;2.83;1.10;;;16.50;99.90;;;;;;5064465;28;20224;-92
2022/12/31 09:03:57;;;;;;;4.33;0.80;;;16.40;99.90;;;;;;5070357;28;20198;-92
2022/12/31 09:06:29;;;;;;;4.17;1.07;;;16.40;99.90;;;;;;5056090;28;20230;-93
2022/12/31 09:09:05;;;;;;;2.47;1.30;;;16.50;99.90;;;;;;5053187;28;20212;-95
2022/12/31 09:11:41;;;;;;;4.10;1.43;;;16.50;99.90;;;;;;5048416;28;20298;-94
2022/12/31 09:14:21;;;;;;;3.33;1.37;;;16.60;99.90;;;;;;5042097;28;20213;-94
2022/12/31 09:16:54;;;;;;;3.53;1.60;;;16.50;99.90;;;;;;5076313;28;20272;-94
2022/12/31 09:19:23;;;;;;;4.53;1.20;;;16.50;99.90;;;;;;5069264;28;20229;-93
2022/12/31 09:21:50;;;;;;;5.57;1.27;;;16.50;99.90;;;;;;5048229;28;20654;-90
2022/12/31 09:24:18;;;;;;;4.17;1.50;;;16.60;99.90;;;;;;5050067;28;20214;-95
2022/12/31 09:26:57;;;;;;;4.90;1.57;;;16.50;99.90;;;;;;5041715;28;20212;-92
2022/12/31 09:29:40;;;;;;;3.80;1.10;;;16.50;99.90;;;;;;5041658;28;20666;-91
2022/12/31 09:32:20;;;;;;;4.20;1.30;;;16.60;99.90;;;;;;5050240;28;20319;-95
2022/12/31 09:35:02;;;;;;;6.27;1.60;;;16.70;99.90;;;;;;5039360;28;20221;-93
2022/12/31 09:37:41;;;;;;;3.13;1.00;;;16.60;99.90;;;;;;5026616;28;20260;-89
2022/12/31 09:40:43;;;;;;;3.87;1.00;;;16.60;99.90;;;;;;5039478;28;20248;-92
2022/12/31 09:43:36;;;;;;;3.80;1.33;;;16.60;99.90;;;;;;5041173;28;20240;-92
2022/12/31 09:46:46;;;;;;;4.20;1.40;;;16.50;99.90;;;;;;5037342;28;20239;-92
2022/12/31 09:49:50;;;;;;;3.77;1.23;;;16.30;99.90;;;;;;5036628;28;20568;-92
2022/12/31 09:52:24;;;;;;;2.47;1.10;;;16.20;99.90;;;;;;4978533;28;20238;-91
2022/12/31 09:54:59;;;;;;;5.03;1.33;;;16.20;99.90;;;;;;5054778;28;20271;-93
2022/12/31 09:57:39;;;;;;;2.87;1.17;;;16.20;99.90;;;;;;5047492;28;20317;-93
2022/12/31 10:00:12;;;;;;;2.80;1.40;;;16.20;99.90;;;;;;5047598;28;20575;-92
2022/12/31 10:03:01;;;;;;;4.77;1.30;;;16.20;99.90;;;;;;5042607;28;20199;-89
2022/12/31 10:05:57;;;;;;;3.23;1.20;;;16.30;99.90;;;;;;5039357;28;20235;-88
2022/12/31 10:08:52;;;;;;;3.70;1.50;;;16.30;99.90;;;;;;5037038;28;20290;-95
2022/12/31 10:11:27;;;;;;;6.13;1.60;;;16.40;99.90;;;;;;5047130;28;20776;-95
2022/12/31 10:14:08;;;;;;;4.43;1.40;;;16.50;99.90;;;;;;5063950;28;20202;-94
2022/12/31 10:16:48;;;;;;;3.87;1.20;;;16.50;99.90;;;;;;5043520;28;20307;-95
2022/12/31 10:19:44;;;;;;;7.30;1.30;;;16.60;99.90;;;;;;5044200;28;20203;-91
2022/12/31 10:22:27;;;;;;;3.43;1.27;;;16.60;99.90;;;;;;5043711;28;20271;-90
2022/12/31 10:25:18;;;;;;;6.03;1.30;;;16.70;99.90;;;;;;5036765;28;20718;-91
2022/12/31 10:27:52;;;;;;;4.33;1.60;;;16.70;99.90;;;;;;5042126;28;20210;-89
2022/12/31 10:30:22;;;;;;;5.67;1.53;;;16.70;99.90;;;;;;5033894;28;20306;-91
2022/12/31 10:33:00;;;;;;;5.60;1.50;;;16.70;99.90;;;;;;5034061;28;20241;-93
2022/12/31 10:35:41;;;;;;;6.83;1.83;;;16.80;99.90;;;;;;5036946;28;20226;-93
2022/12/31 10:38:29;;;;;;;5.53;1.57;;;16.60;99.90;;;;;;5074001;28;20291;-91
2022/12/31 10:41:32;;;;;;;3.13;1.33;;;16.70;99.90;;;;;;5061052;28;20703;-94
2022/12/31 10:44:43;;;;;;;4.07;1.60;;;16.70;99.90;;;;;;5070798;28;20205;-93
2022/12/31 10:47:38;;;;;;;4.47;1.57;;;16.70;99.90;;;;;;5069241;28;20896;-93
2022/12/31 10:50:50;;;;;;;11.03;2.00;;;16.60;99.90;;;;;;5060119;28;20226;-92
2022/12/31 10:53:46;;;;;;;7.00;1.40;;;16.70;99.90;;;;;;5030590;28;20269;-91
2022/12/31 10:56:39;;;;;;;6.47;1.70;;;16.60;99.90;;;;;;5054908;28;20727;-93
2022/12/31 10:59:45;;;;;;;4.80;1.40;;;16.70;99.90;;;;;;5049729;28;20199;-90
2022/12/31 11:02:46;;;;;;;4.03;1.43;;;16.70;99.90;;;;;;5048997;28;20288;-91
2022/12/31 11:06:05;;;;;;;3.80;1.37;;;16.70;99.90;;;;;;5023188;28;20321;-91
2022/12/31 11:09:15;;;;;;;2.87;1.40;;;16.70;99.90;;;;;;4969074;28;20265;-90
2022/12/31 11:11:49;;;;;;;2.07;1.07;;;16.60;99.90;;;;;;4936255;28;20300;-93
2022/12/31 11:14:45;;;;;;;5.70;1.65;;;16.70;99.90;;;;;;5038312;28;20477;-93
2022/12/31 11:17:37;;;;;;;3.97;1.47;;;16.80;99.90;;;;;;5042001;28;20212;-91
2022/12/31 11:20:59;;;;;;;5.27;1.67;;;16.70;99.90;;;;;;5027378;28;20217;-88
2022/12/31 11:23:39;;;;;;;6.23;1.70;;;16.60;99.90;;;;;;5042203;28;20224;-91
2022/12/31 11:26:14;;;;;;;7.20;1.87;;;16.50;99.90;;;;;;5042171;28;20780;-95
2022/12/31 11:29:04;;;;;;;5.70;1.50;;;16.40;99.90;;;;;;5037338;28;20619;-89
2022/12/31 11:31:40;;;;;;;5.47;2.00;;;16.40;99.90;;;;;;5063958;28;20657;-92
2022/12/31 11:34:18;;;;;;;8.03;1.83;;;16.30;99.90;;;;;;5046101;28;20233;-89
2022/12/31 11:36:59;;;;;;;7.90;2.20;;;16.20;99.90;;;;;;5068259;28;20215;-93
2022/12/31 11:39:44;;;;;;;7.40;1.97;;;16.20;99.90;;;;;;5038290;28;20211;-93
2022/12/31 11:42:20;;;;;;;7.77;1.80;;;16.20;99.90;;;;;;5043779;28;20286;-93
2022/12/31 11:45:01;;;;;;;4.90;2.07;;;16.20;99.90;;;;;;5050788;28;20367;-93
2022/12/31 11:47:47;;;;;;;4.50;1.77;;;16.30;99.90;;;;;;5036495;28;20246;-92
2022/12/31 11:50:31;;;;;;;6.75;1.70;;;16.30;99.90;;;;;;5051330;28;20422;-90
2022/12/31 11:53:12;;;;;;;5.87;1.80;;;16.30;99.90;;;;;;5038481;28;20213;-90
2022/12/31 11:55:53;;;;;;;6.10;1.43;;;16.30;99.90;;;;;;5037912;28;20210;-92
2022/12/31 11:58:27;;;;;;;7.97;1.50;;;16.30;99.90;;;;;;5053974;28;20209;-92
2022/12/31 12:01:00;;;;;;;7.67;1.70;;;16.30;99.90;;;;;;5047046;28;20640;-90
2022/12/31 12:03:31;;;;;;;7.87;1.93;;;16.40;99.90;;;;;;5037625;28;20217;-89
2022/12/31 12:06:04;;;;;;;4.77;1.80;;;16.50;99.90;;;;;;5057196;28;20642;-89
2022/12/31 12:08:32;;;;;;;7.20;2.10;;;16.60;99.90;;;;;;5043601;28;20610;-89
2022/12/31 12:11:07;;;;;;;3.33;1.50;;;16.70;99.90;;;;;;5039452;28;20449;-90
2022/12/31 12:13:37;;;;;;;8.57;1.70;;;16.80;99.90;;;;;;5044689;28;20653;-92
2022/12/31 12:16:08;;;;;;;4.30;1.67;;;16.80;99.90;;;;;;5043741;28;20215;-90
2022/12/31 12:18:40;;;;;;;4.20;1.60;;;16.80;99.90;;;;;;5057076;28;20212;-91
2022/12/31 12:21:13;;;;;;;5.17;1.50;;;16.80;99.90;;;;;;5053714;28;20235;-89
2022/12/31 12:23:55;;;;;;;6.73;2.13;;;16.70;99.90;;;;;;5036629;28;20271;-95
2022/12/31 12:26:35;;;;;;;7.17;2.13;;;16.80;99.90;;;;;;5036637;28;20310;-90
2022/12/31 12:29:17;;;;;;;5.73;1.70;;;16.80;99.90;;;;;;5036610;28;20209;-93
2022/12/31 12:32:00;;;;;;;6.83;2.33;;;16.80;99.90;;;;;;5036010;28;20442;-95
2022/12/31 12:34:35;;;;;;;9.10;1.93;;;16.80;99.90;;;;;;5043437;28;20587;-93
2022/12/31 12:37:02;;;;;;;6.00;2.03;;;16.80;99.90;;;;;;5059582;28;20218;-94
2022/12/31 12:39:33;;;;;;;5.73;1.63;;;16.80;99.90;;;;;;5046818;28;20303;-95
2022/12/31 12:42:02;;;;;;;5.87;2.03;;;16.90;99.90;;;;;;5062726;28;20297;-90
2022/12/31 12:44:30;;;;;;;4.50;1.80;;;16.80;99.90;;;;;;5040593;28;20241;-90
2022/12/31 12:46:59;;;;;;;8.70;1.97;;;16.70;99.90;;;;;;5063331;28;20230;-93
2022/12/31 12:49:28;;;;;;;9.00;2.23;;;16.70;99.90;;;;;;5063515;28;20290;-89
2022/12/31 12:52:09;;;;;;;6.67;1.97;;;16.60;99.90;;;;;;5075603;28;20198;-90
2022/12/31 12:54:50;;;;;;;8.67;2.30;;;16.60;99.90;;;;;;5075348;28;20199;-90
2022/12/31 12:57:23;;;;;;;7.50;1.93;;;16.60;99.90;;;;;;5057388;28;20247;-91
2022/12/31 13:00:03;;;;;;;6.87;2.17;;;16.60;99.90;;;;;;5062171;28;20242;-92
2022/12/31 13:03:16;;;;;;;9.60;2.30;;;16.70;99.90;;;;;;5052812;28;20199;-89
2022/12/31 13:05:52;;;;;;;7.27;2.30;;;16.70;99.90;;;;;;5038143;28;20310;-92
2022/12/31 13:08:33;;;;;;;9.60;2.00;;;16.70;99.90;;;;;;5072198;28;20550;-94
2022/12/31 13:11:14;;;;;;;10.37;2.60;;;16.70;99.90;;;;;;5052445;28;20288;-94
2022/12/31 13:13:48;;;;;;;10.67;2.20;;;16.60;99.90;;;;;;5070832;28;20194;-93
2022/12/31 13:16:24;;;;;;;8.27;2.10;;;16.60;99.90;;;;;;5082154;28;20224;-95
2022/12/31 13:19:21;;;;;;;9.07;2.17;;;16.60;99.90;;;;;;5075431;28;20215;-95
2022/12/31 13:21:54;;;;;;;6.67;2.40;;;16.60;99.90;;;;;;5081223;28;20206;-94
2022/12/31 13:24:33;;;;;;;7.23;2.30;;;16.50;99.90;;;;;;5087951;28;20217;-93
2022/12/31 13:27:08;;;;;;;6.67;2.20;;;16.50;99.90;;;;;;5062206;28;20247;-96
2022/12/31 13:32:57;;;;;;;9.70;2.47;;;16.50;99.90;;;;;;5075225;28;20270;-94
2022/12/31 13:35:32;;;;;;;5.90;2.20;;;16.60;99.90;;;;;;5056623;28;20199;-93
2022/12/31 13:38:04;;;;;;;8.73;2.72;;;16.50;99.90;;;;;;5046987;28;20435;-94
2022/12/31 13:40:41;;;;;;;5.40;1.90;;;16.50;99.90;;;;;;5044231;28;20311;-95